createdAt,value
2019-03-21T00:01:53.634Z,28.63
2019-03-21T00:04:21.637Z,24.83
2019-03-21T00:06:49.250Z,23.77
2019-03-21T00:09:17.634Z,21.63
2019-03-21T00:12:24.042Z,24.87
2019-03-21T00:15:30.879Z,24.93
2019-03-21T00:18:02.087Z,24.73
2019-03-21T00:20:30.032Z,27.07
2019-03-21T00:22:57.662Z,31.27
2019-03-21T00:25:25.418Z,26.93
2019-03-21T00:27:53.117Z,29.83
2019-03-21T00:30:21.529Z,28.90
2019-03-21T00:32:49.367Z,27.13
2019-03-21T00:35:17.693Z,31.37
2019-03-21T00:37:45.762Z,29.37
2019-03-21T00:40:16.426Z,27.17
2019-03-21T00:42:44.433Z,28.50
2019-03-21T00:45:13.751Z,26.33
2019-03-21T00:47:41.552Z,27.50
2019-03-21T01:01:21.559Z,30.10
2019-03-21T01:03:49.197Z,26.67
2019-03-21T01:06:17.078Z,27.23
2019-03-21T01:08:44.801Z,30.30
2019-03-21T01:11:12.416Z,32.87
2019-03-21T01:13:40.061Z,29.23
2019-03-21T01:16:08.159Z,31.73
2019-03-21T01:18:36.217Z,31.00
2019-03-21T01:21:03.849Z,32.57
2019-03-21T01:23:31.549Z,30.97
2019-03-21T01:26:00.108Z,29.13
2019-03-21T01:28:27.808Z,29.30
2019-03-21T01:30:55.572Z,30.40
2019-03-21T01:33:23.210Z,31.63
2019-03-21T01:35:50.882Z,31.43
2019-03-21T01:38:18.588Z,32.30
2019-03-21T01:40:47.022Z,32.97
2019-03-21T01:43:14.671Z,30.50
2019-03-21T01:45:42.420Z,33.03
2019-03-21T01:48:10.028Z,34.00
2019-03-21T01:50:37.782Z,28.47
2019-03-21T01:53:05.505Z,31.93
2019-03-21T01:55:33.143Z,36.23
2019-03-21T01:58:00.780Z,32.90
2019-03-21T02:00:31.387Z,31.37
2019-03-21T02:02:59.031Z,31.40
2019-03-21T02:05:26.700Z,33.33
2019-03-21T02:07:54.475Z,31.90
2019-03-21T02:11:02.646Z,28.00
2019-03-21T02:13:30.783Z,32.07
2019-03-21T02:15:59.241Z,31.43
2019-03-21T02:18:28.012Z,34.77
2019-03-21T02:20:55.783Z,32.43
2019-03-21T02:23:23.809Z,34.27
2019-03-21T02:25:51.443Z,33.77
2019-03-21T02:28:19.260Z,30.50
2019-03-21T02:30:47.241Z,32.40
2019-03-21T02:33:34.111Z,28.00
2019-03-21T02:36:01.950Z,31.93
2019-03-21T02:38:30.318Z,29.90
2019-03-21T02:40:59.383Z,27.73
2019-03-21T02:43:26.981Z,32.03
2019-03-21T02:45:54.608Z,30.93
2019-03-21T02:48:23.097Z,31.30
2019-03-21T02:50:51.261Z,29.80
2019-03-21T02:53:18.869Z,31.40
2019-03-21T02:55:46.622Z,33.97
2019-03-21T02:58:14.253Z,35.90
2019-03-21T03:00:42.046Z,30.90
2019-03-21T03:03:09.790Z,31.17
2019-03-21T03:05:37.447Z,33.43
2019-03-21T03:08:06.024Z,32.77
2019-03-21T03:10:39.592Z,32.00
2019-03-21T03:13:07.258Z,30.13
2019-03-21T03:15:34.906Z,34.93
2019-03-21T03:18:02.789Z,33.97
2019-03-21T03:20:30.420Z,33.23
2019-03-21T03:22:58.072Z,32.87
2019-03-21T03:25:25.831Z,33.73
2019-03-21T03:27:54.977Z,33.67
2019-03-21T03:30:23.098Z,30.87
2019-03-21T03:33:02.780Z,32.20
2019-03-21T03:35:30.526Z,31.67
2019-03-21T03:37:58.166Z,30.70
2019-03-21T03:40:28.847Z,29.90
2019-03-21T03:42:56.673Z,30.87
2019-03-21T03:45:37.379Z,30.23
2019-03-21T03:47:57.106Z,33.17
2019-03-21T03:50:25.164Z,29.20
2019-03-21T03:52:53.233Z,29.17
2019-03-21T03:55:21.051Z,28.53
2019-03-21T03:57:48.970Z,29.23
2019-03-21T04:00:17.583Z,30.03
2019-03-21T04:02:46.547Z,29.13
2019-03-21T04:05:14.248Z,30.27
2019-03-21T04:07:42.268Z,29.27
2019-03-21T04:10:31.019Z,26.00
2019-03-21T04:12:58.850Z,25.77
2019-03-21T04:15:26.503Z,30.40
2019-03-21T04:17:54.620Z,26.20
2019-03-21T04:20:24.659Z,25.57
2019-03-21T04:22:52.708Z,25.17
2019-03-21T04:25:23.950Z,26.17
2019-03-21T04:27:51.580Z,27.00
2019-03-21T04:30:19.261Z,29.40
2019-03-21T04:32:46.965Z,32.77
2019-03-21T04:35:14.676Z,28.20
2019-03-21T04:37:42.433Z,27.97
2019-03-21T04:40:11.267Z,28.80
2019-03-21T04:42:40.174Z,30.37
2019-03-21T04:45:10.900Z,29.40
2019-03-21T04:47:38.623Z,35.43
2019-03-21T04:50:08.288Z,31.67
2019-03-21T04:52:35.921Z,33.17
2019-03-21T04:55:04.314Z,31.63
2019-03-21T04:57:32.371Z,32.70
2019-03-21T05:00:00.013Z,30.97
2019-03-21T05:02:27.731Z,34.03
2019-03-21T05:04:55.362Z,36.27
2019-03-21T05:07:24.215Z,35.50
2019-03-21T05:10:11.394Z,35.50
2019-03-21T05:12:39.428Z,31.73
2019-03-21T05:15:09.924Z,36.07
2019-03-21T05:17:57.910Z,32.30
2019-03-21T05:20:26.172Z,35.20
2019-03-21T05:22:53.581Z,38.50
2019-03-21T05:25:21.285Z,36.07
2019-03-21T05:27:48.595Z,35.80
2019-03-21T05:30:19.580Z,37.17
2019-03-21T05:32:47.198Z,35.80
2019-03-21T05:35:16.749Z,34.33
2019-03-21T05:37:56.816Z,37.07
2019-03-21T05:40:24.786Z,33.63
2019-03-21T05:42:56.542Z,38.37
2019-03-21T05:45:24.235Z,37.83
2019-03-21T05:47:51.898Z,36.93
2019-03-21T05:50:19.545Z,36.70
2019-03-21T05:52:47.253Z,36.53
2019-03-21T05:55:15.109Z,38.03
2019-03-21T05:57:42.801Z,37.40
2019-03-21T06:00:31.600Z,36.07
2019-03-21T06:03:01.388Z,38.23
2019-03-21T06:05:28.769Z,36.83
2019-03-21T06:08:00.322Z,35.90
2019-03-21T06:10:28.031Z,37.77
2019-03-21T06:12:55.332Z,34.57
2019-03-21T06:15:25.712Z,38.97
2019-03-21T06:18:27.186Z,37.03
2019-03-21T06:21:16.237Z,37.10
2019-03-21T06:24:06.841Z,34.83
2019-03-21T06:27:14.723Z,35.17
2019-03-21T06:29:42.705Z,34.73
2019-03-21T06:32:12.867Z,38.40
2019-03-21T06:34:40.274Z,33.80
2019-03-21T06:37:08.815Z,33.00
2019-03-21T06:39:36.512Z,34.63
2019-03-21T06:42:04.748Z,37.60
2019-03-21T06:44:32.592Z,32.30
2019-03-21T06:47:00.278Z,34.40
2019-03-21T06:49:27.985Z,38.80
2019-03-21T06:51:55.636Z,34.83
2019-03-21T06:54:23.918Z,32.67
2019-03-21T06:56:51.947Z,36.90
2019-03-21T06:59:20.973Z,33.87
2019-03-21T07:01:48.995Z,35.60
2019-03-21T07:04:16.853Z,32.47
2019-03-21T07:06:44.522Z,35.53
2019-03-21T07:09:12.121Z,34.33
2019-03-21T07:11:39.794Z,36.93
2019-03-21T07:14:07.807Z,40.07
2019-03-21T07:16:35.468Z,35.40
2019-03-21T07:19:03.316Z,37.80
2019-03-21T07:21:31.158Z,37.93
2019-03-21T07:23:58.813Z,36.83
2019-03-21T07:26:26.521Z,40.27
2019-03-21T07:28:54.147Z,37.43
2019-03-21T07:31:21.861Z,38.10
2019-03-21T07:33:49.533Z,38.90
2019-03-21T07:36:17.160Z,41.57
2019-03-21T07:38:44.778Z,44.03
2019-03-21T07:41:12.570Z,40.17
2019-03-21T07:43:40.224Z,39.00
2019-03-21T07:46:07.896Z,43.70
2019-03-21T07:48:36.145Z,45.90
2019-03-21T07:51:03.777Z,42.07
2019-03-21T07:53:31.421Z,44.50
2019-03-21T07:55:59.253Z,45.07
2019-03-21T07:58:26.883Z,42.10
2019-03-21T08:00:54.536Z,46.77
2019-03-21T08:03:22.239Z,45.23
2019-03-21T08:05:49.865Z,44.70
2019-03-21T08:08:17.780Z,43.67
2019-03-21T08:10:45.469Z,44.23
2019-03-21T08:13:13.350Z,46.30
2019-03-21T08:15:41.256Z,45.07
2019-03-21T08:18:08.937Z,40.90
2019-03-21T08:20:36.925Z,44.20
2019-03-21T08:23:04.873Z,43.20
2019-03-21T08:25:32.583Z,44.17
2019-03-21T08:28:00.562Z,42.77
2019-03-21T08:30:51.807Z,40.87
2019-03-21T08:33:19.196Z,43.07
2019-03-21T08:35:46.453Z,42.50
2019-03-21T08:38:33.280Z,41.87
2019-03-21T08:41:00.817Z,38.27
2019-03-21T08:43:28.342Z,43.10
2019-03-21T08:45:55.901Z,40.37
2019-03-21T08:48:23.542Z,40.07
2019-03-21T08:50:51.234Z,44.23
2019-03-21T08:53:18.813Z,41.03
2019-03-21T08:55:46.487Z,42.70
2019-03-21T08:58:14.088Z,43.63
2019-03-21T09:00:41.399Z,41.90
2019-03-21T09:03:08.787Z,37.33
2019-03-21T09:05:36.438Z,37.70
2019-03-21T09:08:23.111Z,37.50
2019-03-21T09:10:50.369Z,39.80
2019-03-21T09:13:17.765Z,40.10
2019-03-21T09:15:45.214Z,36.20
2019-03-21T09:18:13.056Z,36.57
2019-03-21T09:20:41.040Z,34.90
2019-03-21T09:23:09.340Z,31.23
2019-03-21T09:25:37.277Z,30.77
2019-03-21T09:28:04.830Z,30.10
2019-03-21T09:30:32.252Z,28.83
2019-03-21T09:33:18.770Z,27.83
2019-03-21T09:35:46.186Z,28.60
2019-03-21T09:38:13.564Z,30.27
2019-03-21T09:40:41.280Z,31.67
2019-03-21T09:43:08.721Z,31.03
2019-03-21T09:45:36.309Z,27.70
2019-03-21T09:48:03.642Z,26.77
2019-03-21T09:50:31.424Z,24.33
2019-03-21T09:52:59.063Z,30.90
2019-03-21T09:55:26.742Z,25.87
2019-03-21T09:57:54.310Z,25.07
2019-03-21T10:00:41.063Z,26.87
2019-03-21T10:03:08.555Z,27.60
2019-03-21T10:05:35.972Z,26.37
2019-03-21T10:08:44.328Z,29.07
2019-03-21T10:11:11.978Z,27.60
2019-03-21T10:13:58.647Z,23.97
2019-03-21T10:16:26.318Z,28.03
2019-03-21T10:18:53.619Z,26.07
2019-03-21T10:21:20.951Z,30.10
2019-03-21T10:23:48.263Z,23.17
2019-03-21T10:26:15.641Z,28.03
2019-03-21T10:28:43.110Z,25.93
2019-03-21T10:31:10.564Z,25.70
2019-03-21T10:33:37.832Z,28.07
2019-03-21T10:36:06.057Z,22.57
2019-03-21T10:38:33.733Z,23.47
2019-03-21T10:41:01.131Z,25.27
2019-03-21T10:43:28.447Z,26.03
2019-03-21T10:45:55.746Z,25.70
2019-03-21T10:48:23.632Z,22.27
2019-03-21T10:50:52.686Z,23.27
2019-03-21T10:53:20.346Z,26.03
2019-03-21T10:55:48.427Z,21.93
2019-03-21T10:58:16.503Z,25.73
2019-03-21T11:00:44.218Z,25.50
2019-03-21T11:03:11.852Z,27.10
2019-03-21T11:05:40.453Z,25.93
2019-03-21T11:08:09.880Z,25.83
2019-03-21T11:10:38.811Z,26.90
2019-03-21T11:13:25.768Z,28.60
2019-03-21T11:15:53.425Z,29.27
2019-03-21T11:18:21.547Z,30.00
2019-03-21T11:20:49.625Z,26.43
2019-03-21T11:23:17.252Z,28.47
2019-03-21T11:25:44.891Z,26.73
2019-03-21T11:28:13.037Z,29.03
2019-03-21T11:30:42.633Z,26.63
2019-03-21T11:33:10.323Z,28.60
2019-03-21T11:35:38.765Z,29.57
2019-03-21T11:38:06.867Z,27.50
2019-03-21T11:40:34.765Z,28.27
2019-03-21T11:43:03.661Z,30.40
2019-03-21T11:45:31.511Z,31.13
2019-03-21T11:47:59.979Z,30.83
2019-03-21T11:50:28.834Z,35.87
2019-03-21T11:52:56.776Z,31.67
2019-03-21T11:55:43.467Z,30.53
2019-03-21T11:58:10.843Z,29.90
2019-03-21T12:03:28.125Z,30.50
2019-03-21T12:05:56.579Z,31.47
2019-03-21T12:08:24.557Z,28.50
2019-03-21T12:10:53.040Z,29.60
2019-03-21T12:13:21.002Z,28.10
2019-03-21T12:15:48.658Z,28.73
2019-03-21T12:18:16.359Z,29.27
2019-03-21T12:20:43.998Z,30.50
2019-03-21T12:23:11.805Z,29.03
2019-03-21T12:25:40.141Z,30.07
2019-03-21T12:28:07.838Z,31.83
2019-03-21T12:30:39.914Z,29.27
2019-03-21T12:33:07.931Z,32.97
2019-03-21T12:35:36.208Z,30.63
2019-03-21T12:38:04.474Z,29.17
2019-03-21T12:40:32.964Z,29.60
2019-03-21T12:43:00.625Z,33.60
2019-03-21T12:45:29.240Z,32.40
2019-03-21T12:47:56.919Z,33.60
2019-03-21T12:50:25.563Z,30.50
2019-03-21T12:52:53.451Z,30.70
2019-03-21T12:55:21.141Z,30.10
2019-03-21T12:57:49.171Z,31.17
2019-03-21T13:00:58.028Z,32.37
2019-03-21T13:03:26.634Z,32.33
2019-03-21T13:05:56.213Z,30.60
2019-03-21T13:08:33.438Z,32.97
2019-03-21T13:10:54.437Z,32.60
2019-03-21T13:13:42.837Z,34.80
2019-03-21T13:16:30.167Z,34.50
2019-03-21T13:18:57.695Z,36.77
2019-03-21T13:21:25.923Z,30.07
2019-03-21T13:23:55.275Z,33.47
2019-03-21T13:26:23.524Z,32.43
2019-03-21T13:28:52.486Z,37.60
2019-03-21T13:31:24.508Z,30.87
2019-03-21T13:33:53.825Z,33.20
2019-03-21T13:36:21.991Z,32.57
2019-03-21T13:38:53.665Z,39.87
2019-03-21T13:41:41.184Z,40.83
2019-03-21T13:44:09.281Z,34.23
2019-03-21T13:46:37.924Z,33.80
2019-03-21T13:49:06.165Z,30.73
2019-03-21T13:51:36.095Z,34.70
2019-03-21T13:54:03.892Z,31.37
2019-03-21T13:56:37.955Z,32.47
2019-03-21T13:59:01.117Z,32.37
2019-03-21T14:01:28.482Z,33.97
2019-03-21T14:03:55.805Z,35.20
2019-03-21T14:06:23.113Z,42.23
2019-03-21T14:08:50.385Z,36.87
2019-03-21T14:11:19.339Z,34.80
2019-03-21T14:13:47.759Z,41.50
2019-03-21T14:16:34.455Z,45.07
2019-03-21T14:19:01.881Z,32.53
2019-03-21T14:21:29.298Z,38.00
2019-03-21T14:23:56.757Z,39.73
2019-03-21T14:26:24.163Z,35.30
2019-03-21T14:28:51.556Z,34.70
2019-03-21T14:31:19.333Z,33.33
2019-03-21T14:33:47.054Z,33.17
2019-03-21T14:36:14.462Z,36.90
2019-03-21T14:38:41.849Z,37.80
2019-03-21T14:41:09.235Z,34.43
2019-03-21T14:43:36.697Z,35.73
2019-03-21T14:46:04.012Z,34.00
2019-03-21T14:48:31.623Z,45.17
2019-03-21T14:50:59.045Z,32.17
2019-03-21T14:53:29.152Z,36.33
2019-03-21T14:55:56.108Z,32.40
2019-03-21T14:58:24.444Z,37.77
2019-03-21T15:00:51.815Z,38.37
2019-03-21T15:03:19.191Z,37.37
2019-03-21T15:08:41.642Z,35.23
2019-03-21T15:11:16.929Z,34.50
2019-03-21T15:16:07.817Z,46.00
2019-03-21T15:18:36.372Z,36.17
2019-03-21T15:21:23.916Z,40.23
2019-03-21T15:23:59.483Z,37.53
2019-03-21T15:26:21.291Z,43.17
2019-03-21T15:28:48.633Z,42.10
2019-03-21T15:31:16.374Z,37.63
2019-03-21T15:33:43.691Z,40.67
2019-03-21T15:36:11.078Z,36.63
2019-03-21T15:38:38.552Z,37.30
2019-03-21T15:41:06.017Z,45.90
2019-03-21T15:43:33.331Z,44.40
2019-03-21T15:46:00.715Z,35.93
2019-03-21T15:48:28.211Z,38.70
2019-03-21T15:51:04.506Z,33.73
2019-03-21T15:53:25.327Z,35.40
2019-03-21T15:55:52.858Z,37.57
2019-03-21T15:58:21.373Z,38.83
2019-03-21T16:00:49.124Z,36.80
2019-03-21T16:03:16.441Z,38.93
2019-03-21T16:05:43.916Z,38.37
2019-03-21T16:08:11.359Z,40.77
2019-03-21T16:10:38.754Z,36.00
2019-03-21T16:13:06.628Z,40.87
2019-03-21T16:15:34.080Z,41.90
2019-03-21T16:18:02.490Z,40.53
2019-03-21T16:20:29.901Z,38.50
2019-03-21T16:22:58.286Z,37.77
2019-03-21T16:25:26.417Z,40.87
2019-03-21T16:27:53.907Z,37.17
2019-03-21T16:30:21.208Z,39.60
2019-03-21T16:32:48.806Z,38.83
2019-03-21T16:35:16.153Z,39.17
2019-03-21T16:37:43.557Z,40.27
2019-03-21T16:40:13.105Z,39.27
2019-03-21T16:42:40.529Z,44.73
2019-03-21T16:45:08.025Z,36.43
2019-03-21T16:47:35.397Z,35.83
2019-03-21T16:50:03.722Z,34.77
2019-03-21T16:52:31.119Z,34.10
2019-03-21T16:54:58.376Z,36.93
2019-03-21T16:57:25.912Z,33.33
2019-03-21T17:00:05.210Z,42.20
2019-03-21T17:02:32.543Z,33.73
2019-03-21T17:04:59.922Z,31.73
2019-03-21T17:07:27.320Z,35.67
2019-03-21T17:09:57.816Z,34.77
2019-03-21T17:12:24.358Z,29.87
2019-03-21T17:14:51.644Z,33.13
2019-03-21T17:17:19.265Z,35.90
2019-03-21T17:19:46.661Z,37.40
2019-03-21T17:22:14.098Z,38.93
2019-03-21T17:24:41.722Z,35.83
2019-03-21T17:27:09.269Z,36.20
2019-03-21T17:29:36.548Z,34.20
2019-03-21T17:32:04.148Z,34.47
2019-03-21T17:34:31.541Z,32.07
2019-03-21T17:36:58.831Z,33.93
2019-03-21T17:39:26.184Z,38.23
2019-03-21T17:41:53.460Z,32.53
2019-03-21T17:44:20.757Z,33.57
2019-03-21T17:46:48.296Z,36.33
2019-03-21T17:49:15.676Z,34.00
2019-03-21T17:51:43.335Z,36.77
2019-03-21T17:54:10.826Z,36.67
2019-03-21T17:56:41.300Z,38.53
2019-03-21T17:59:08.563Z,37.23
2019-03-21T18:01:48.380Z,36.53
2019-03-21T18:04:28.604Z,34.70
2019-03-21T18:06:56.396Z,37.43
2019-03-21T18:09:24.430Z,35.53
2019-03-21T18:11:54.211Z,35.43
2019-03-21T18:14:21.971Z,34.17
2019-03-21T18:16:49.601Z,44.27
2019-03-21T18:19:17.249Z,36.33
2019-03-21T18:21:45.033Z,33.03
2019-03-21T18:24:12.888Z,38.57
2019-03-21T18:26:40.526Z,35.77
2019-03-21T18:29:08.693Z,34.63
2019-03-21T18:31:36.360Z,36.77
2019-03-21T18:34:04.015Z,39.17
2019-03-21T18:36:31.681Z,37.43
2019-03-21T18:39:00.009Z,35.23
2019-03-21T18:41:28.858Z,38.77
2019-03-21T18:43:56.453Z,40.90
2019-03-21T18:46:23.729Z,44.10
2019-03-21T18:48:51.137Z,40.53
2019-03-21T18:51:18.651Z,35.80
2019-03-21T18:53:46.201Z,36.63
2019-03-21T18:56:13.527Z,33.60
2019-03-21T18:58:41.071Z,34.33
2019-03-21T19:01:58.111Z,38.90
2019-03-21T19:04:18.761Z,32.07
2019-03-21T19:06:46.750Z,35.43
2019-03-21T19:09:14.389Z,37.03
2019-03-21T19:11:42.510Z,40.00
2019-03-21T19:14:10.163Z,40.63
2019-03-21T19:16:37.804Z,40.07
2019-03-21T19:19:05.508Z,35.13
2019-03-21T19:21:33.147Z,31.43
2019-03-21T19:24:01.218Z,34.83
2019-03-21T19:26:29.396Z,34.93
2019-03-21T19:28:57.233Z,42.70
2019-03-21T19:31:24.856Z,38.50
2019-03-21T19:33:52.904Z,39.63
2019-03-21T19:36:39.522Z,44.23
2019-03-21T19:39:08.086Z,41.60
2019-03-21T19:41:35.373Z,47.63
2019-03-21T19:44:02.953Z,40.00
2019-03-21T19:46:31.589Z,42.10
2019-03-21T19:48:59.144Z,39.37
2019-03-21T19:51:26.660Z,40.73
2019-03-21T19:53:54.067Z,41.47
2019-03-21T19:56:21.356Z,43.30
2019-03-21T19:58:48.737Z,45.43
2019-03-21T20:01:16.150Z,47.73
2019-03-21T20:03:43.545Z,40.23
2019-03-21T20:06:10.888Z,37.27
2019-03-21T20:08:38.398Z,43.57
2019-03-21T20:11:05.701Z,42.37
2019-03-21T20:13:33.089Z,38.40
2019-03-21T20:16:00.967Z,40.17
2019-03-21T20:18:29.178Z,39.57
2019-03-21T20:20:56.669Z,42.70
2019-03-21T20:23:24.406Z,43.27
2019-03-21T20:25:51.918Z,39.07
2019-03-21T20:28:20.025Z,39.77
2019-03-21T20:30:47.989Z,48.83
2019-03-21T20:33:16.770Z,48.30
2019-03-21T20:35:44.160Z,46.33
2019-03-21T20:38:11.725Z,39.80
2019-03-21T20:40:58.376Z,43.03
2019-03-21T20:43:25.840Z,43.30
2019-03-21T20:45:53.225Z,41.60
2019-03-21T20:48:39.420Z,42.70
2019-03-21T20:51:07.032Z,48.60
2019-03-21T20:53:34.670Z,41.77
2019-03-21T20:56:02.593Z,40.37
2019-03-21T20:58:30.219Z,42.27
2019-03-21T21:00:57.862Z,45.13
2019-03-21T21:03:25.613Z,39.10
2019-03-21T21:05:53.728Z,43.83
2019-03-21T21:08:21.406Z,45.83
2019-03-21T21:10:49.309Z,44.83
2019-03-21T21:13:16.919Z,41.57
2019-03-21T21:15:45.188Z,38.60
2019-03-21T21:18:32.545Z,40.87
2019-03-21T21:21:00.335Z,55.53
2019-03-21T21:23:28.485Z,48.10
2019-03-21T21:26:16.056Z,41.10
2019-03-21T21:28:44.047Z,45.33
2019-03-21T21:31:11.665Z,49.13
2019-03-21T21:33:39.660Z,38.80
2019-03-21T21:36:07.667Z,54.20
2019-03-21T21:38:35.435Z,44.07
2019-03-21T21:41:03.219Z,40.37
2019-03-21T21:43:30.860Z,40.60
2019-03-21T21:45:58.508Z,42.20
2019-03-21T21:48:26.687Z,39.00
2019-03-21T21:50:54.303Z,39.20
2019-03-21T21:53:21.953Z,40.13
2019-03-21T21:55:50.484Z,46.30
2019-03-21T21:58:18.146Z,41.67
2019-03-21T22:00:45.767Z,37.17
2019-03-21T22:03:14.084Z,44.27
2019-03-21T22:05:41.714Z,54.20
2019-03-21T22:08:09.527Z,51.67
2019-03-21T22:10:37.688Z,50.17
2019-03-21T22:13:05.303Z,55.97
2019-03-21T22:15:33.301Z,49.67
2019-03-21T22:18:01.058Z,47.57
2019-03-21T22:20:29.243Z,43.50
2019-03-21T22:22:56.871Z,45.50
2019-03-21T22:25:25.305Z,43.47
2019-03-21T22:27:53.783Z,47.20
2019-03-21T22:30:21.766Z,36.20
2019-03-21T22:32:50.147Z,35.60
2019-03-21T22:35:17.772Z,39.53
2019-03-21T22:37:45.752Z,35.53
2019-03-21T22:40:13.817Z,35.93
2019-03-21T22:42:41.475Z,38.27
2019-03-21T22:45:09.837Z,35.47
2019-03-21T22:47:37.503Z,39.00
2019-03-21T22:50:07.353Z,33.80
2019-03-21T22:52:35.311Z,33.60
2019-03-21T22:55:24.448Z,40.63
2019-03-21T22:57:52.191Z,31.50
2019-03-21T23:03:08.994Z,30.03
2019-03-21T23:05:36.382Z,24.50
2019-03-21T23:08:03.762Z,28.37
2019-03-21T23:10:31.181Z,24.07
2019-03-21T23:13:10.492Z,22.80
2019-03-21T23:15:37.839Z,19.30
2019-03-21T23:18:05.116Z,18.70
2019-03-21T23:20:32.390Z,22.57
2019-03-21T23:22:59.989Z,23.47
2019-03-21T23:25:27.262Z,22.37
2019-03-21T23:27:54.802Z,20.67
2019-03-21T23:30:22.198Z,25.20
2019-03-21T23:32:49.468Z,23.30
2019-03-21T23:35:16.751Z,24.10
2019-03-21T23:37:44.242Z,22.67
2019-03-21T23:40:11.833Z,29.87
2019-03-21T23:42:39.108Z,22.93
2019-03-21T23:45:06.773Z,23.23
2019-03-21T23:47:34.181Z,24.77
2019-03-21T23:50:01.571Z,35.77
2019-03-21T23:52:28.883Z,30.27
2019-03-21T23:54:56.263Z,49.63
2019-03-21T23:57:23.632Z,30.67
2019-03-21T23:59:51.042Z,37.63
